sensor_id;sensor_type;location;lat;lon;timestamp;P1;durP1;ratioP1;P2;durP2;ratioP2
69325;SDS011;56471;53.508;49.252;2023-05-27T00:01:48;16.42;;;7.70;;
69325;SDS011;56471;53.508;49.252;2023-05-27T00:04:13;11.18;;;7.55;;
69325;SDS011;56471;53.508;49.252;2023-05-27T00:06:39;15.35;;;8.18;;
69325;SDS011;56471;53.508;49.252;2023-05-27T00:09:05;10.95;;;7.30;;
69325;SDS011;56471;53.508;49.252;2023-05-27T00:11:30;13.15;;;7.90;;
69325;SDS011;56471;53.508;49.252;2023-05-27T00:13:56;13.80;;;8.00;;
69325;SDS011;56471;53.508;49.252;2023-05-27T00:16:22;13.85;;;7.72;;
69325;SDS011;56471;53.508;49.252;2023-05-27T00:18:48;14.23;;;7.70;;
69325;SDS011;56471;53.508;49.252;2023-05-27T00:21:14;19.30;;;7.95;;
69325;SDS011;56471;53.508;49.252;2023-05-27T00:23:45;19.08;;;8.02;;
69325;SDS011;56471;53.508;49.252;2023-05-27T00:26:11;15.48;;;7.63;;
69325;SDS011;56471;53.508;49.252;2023-05-27T00:28:37;12.10;;;7.43;;
69325;SDS011;56471;53.508;49.252;2023-05-27T00:31:03;15.15;;;7.63;;
69325;SDS011;56471;53.508;49.252;2023-05-27T00:33:28;14.95;;;7.70;;
69325;SDS011;56471;53.508;49.252;2023-05-27T00:35:54;16.55;;;7.60;;
69325;SDS011;56471;53.508;49.252;2023-05-27T00:38:20;13.85;;;7.57;;
69325;SDS011;56471;53.508;49.252;2023-05-27T00:40:46;12.68;;;7.30;;
69325;SDS011;56471;53.508;49.252;2023-05-27T00:43:11;14.45;;;7.80;;
69325;SDS011;56471;53.508;49.252;2023-05-27T00:45:37;12.95;;;7.30;;
69325;SDS011;56471;53.508;49.252;2023-05-27T00:48:03;12.35;;;7.43;;
69325;SDS011;56471;53.508;49.252;2023-05-27T00:50:30;20.65;;;8.30;;
69325;SDS011;56471;53.508;49.252;2023-05-27T00:52:55;16.15;;;7.47;;
69325;SDS011;56471;53.508;49.252;2023-05-27T00:55:22;14.10;;;7.45;;
69325;SDS011;56471;53.508;49.252;2023-05-27T00:57:49;12.88;;;7.70;;
69325;SDS011;56471;53.508;49.252;2023-05-27T01:00:14;15.15;;;7.60;;
69325;SDS011;56471;53.508;49.252;2023-05-27T01:02:40;17.42;;;7.18;;
69325;SDS011;56471;53.508;49.252;2023-05-27T01:05:08;12.90;;;7.00;;
69325;SDS011;56471;53.508;49.252;2023-05-27T01:13:13;16.38;;;7.57;;
69325;SDS011;56471;53.508;49.252;2023-05-27T01:15:44;15.23;;;6.85;;
69325;SDS011;56471;53.508;49.252;2023-05-27T01:18:11;15.00;;;6.90;;
69325;SDS011;56471;53.508;49.252;2023-05-27T01:20:41;18.98;;;7.13;;
69325;SDS011;56471;53.508;49.252;2023-05-27T01:23:10;14.73;;;6.70;;
69325;SDS011;56471;53.508;49.252;2023-05-27T01:25:35;16.90;;;7.10;;
69325;SDS011;56471;53.508;49.252;2023-05-27T01:28:01;20.58;;;7.60;;
69325;SDS011;56471;53.508;49.252;2023-05-27T01:30:27;16.48;;;7.18;;
69325;SDS011;56471;53.508;49.252;2023-05-27T01:33:35;24.20;;;7.35;;
69325;SDS011;56471;53.508;49.252;2023-05-27T01:35:46;16.42;;;6.97;;
69325;SDS011;56471;53.508;49.252;2023-05-27T01:38:19;15.90;;;7.30;;
69325;SDS011;56471;53.508;49.252;2023-05-27T01:40:48;11.38;;;6.45;;
69325;SDS011;56471;53.508;49.252;2023-05-27T01:43:15;16.95;;;7.18;;
69325;SDS011;56471;53.508;49.252;2023-05-27T01:45:43;14.55;;;6.50;;
69325;SDS011;56471;53.508;49.252;2023-05-27T01:48:09;19.92;;;6.97;;
69325;SDS011;56471;53.508;49.252;2023-05-27T01:50:35;13.63;;;6.95;;
69325;SDS011;56471;53.508;49.252;2023-05-27T01:53:01;20.63;;;6.50;;
69325;SDS011;56471;53.508;49.252;2023-05-27T01:55:30;14.77;;;6.80;;
69325;SDS011;56471;53.508;49.252;2023-05-27T01:57:56;15.77;;;6.90;;
69325;SDS011;56471;53.508;49.252;2023-05-27T02:00:22;19.30;;;6.72;;
69325;SDS011;56471;53.508;49.252;2023-05-27T02:02:49;18.25;;;6.72;;
69325;SDS011;56471;53.508;49.252;2023-05-27T02:05:15;14.48;;;6.22;;
69325;SDS011;56471;53.508;49.252;2023-05-27T02:07:41;15.88;;;6.60;;
69325;SDS011;56471;53.508;49.252;2023-05-27T02:10:07;16.70;;;6.15;;
69325;SDS011;56471;53.508;49.252;2023-05-27T02:12:33;16.70;;;6.53;;
69325;SDS011;56471;53.508;49.252;2023-05-27T02:14:58;22.55;;;6.80;;
69325;SDS011;56471;53.508;49.252;2023-05-27T02:17:24;16.10;;;6.47;;
69325;SDS011;56471;53.508;49.252;2023-05-27T02:19:50;15.98;;;6.40;;
69325;SDS011;56471;53.508;49.252;2023-05-27T02:22:16;16.30;;;6.43;;
69325;SDS011;56471;53.508;49.252;2023-05-27T02:24:42;16.77;;;6.07;;
69325;SDS011;56471;53.508;49.252;2023-05-27T02:27:08;21.00;;;5.93;;
69325;SDS011;56471;53.508;49.252;2023-05-27T02:29:34;20.30;;;6.53;;
69325;SDS011;56471;53.508;49.252;2023-05-27T02:31:59;18.38;;;6.55;;
69325;SDS011;56471;53.508;49.252;2023-05-27T02:34:25;14.93;;;6.22;;
69325;SDS011;56471;53.508;49.252;2023-05-27T02:36:51;17.65;;;6.05;;
69325;SDS011;56471;53.508;49.252;2023-05-27T02:39:17;13.45;;;6.18;;
69325;SDS011;56471;53.508;49.252;2023-05-27T02:41:42;15.68;;;6.50;;
69325;SDS011;56471;53.508;49.252;2023-05-27T02:44:08;14.95;;;6.15;;
69325;SDS011;56471;53.508;49.252;2023-05-27T02:46:34;15.02;;;6.40;;
69325;SDS011;56471;53.508;49.252;2023-05-27T02:48:59;18.98;;;6.60;;
69325;SDS011;56471;53.508;49.252;2023-05-27T02:51:25;16.00;;;6.72;;
69325;SDS011;56471;53.508;49.252;2023-05-27T02:53:52;16.13;;;6.10;;
69325;SDS011;56471;53.508;49.252;2023-05-27T02:56:18;18.00;;;6.15;;
69325;SDS011;56471;53.508;49.252;2023-05-27T02:58:43;17.17;;;6.60;;
69325;SDS011;56471;53.508;49.252;2023-05-27T03:01:09;16.70;;;6.35;;
69325;SDS011;56471;53.508;49.252;2023-05-27T03:03:35;14.30;;;6.72;;
69325;SDS011;56471;53.508;49.252;2023-05-27T03:06:00;16.85;;;6.05;;
69325;SDS011;56471;53.508;49.252;2023-05-27T03:08:27;17.13;;;6.20;;
69325;SDS011;56471;53.508;49.252;2023-05-27T03:10:52;21.45;;;6.55;;
69325;SDS011;56471;53.508;49.252;2023-05-27T03:13:18;18.20;;;6.35;;
69325;SDS011;56471;53.508;49.252;2023-05-27T03:15:43;18.70;;;6.32;;
69325;SDS011;56471;53.508;49.252;2023-05-27T03:18:09;19.80;;;6.72;;
69325;SDS011;56471;53.508;49.252;2023-05-27T03:20:35;18.45;;;6.43;;
69325;SDS011;56471;53.508;49.252;2023-05-27T03:23:00;12.93;;;6.20;;
69325;SDS011;56471;53.508;49.252;2023-05-27T03:25:26;19.38;;;6.28;;
69325;SDS011;56471;53.508;49.252;2023-05-27T03:27:52;15.85;;;6.50;;
69325;SDS011;56471;53.508;49.252;2023-05-27T03:30:18;17.55;;;6.65;;
69325;SDS011;56471;53.508;49.252;2023-05-27T03:32:44;18.35;;;6.70;;
69325;SDS011;56471;53.508;49.252;2023-05-27T03:35:10;18.20;;;6.88;;
69325;SDS011;56471;53.508;49.252;2023-05-27T03:37:35;18.50;;;6.30;;
69325;SDS011;56471;53.508;49.252;2023-05-27T03:40:01;14.57;;;6.22;;
69325;SDS011;56471;53.508;49.252;2023-05-27T03:42:28;17.30;;;6.10;;
69325;SDS011;56471;53.508;49.252;2023-05-27T03:44:54;20.15;;;6.80;;
69325;SDS011;56471;53.508;49.252;2023-05-27T03:47:19;14.65;;;5.82;;
69325;SDS011;56471;53.508;49.252;2023-05-27T03:49:46;20.10;;;6.60;;
69325;SDS011;56471;53.508;49.252;2023-05-27T03:52:12;14.85;;;5.97;;
69325;SDS011;56471;53.508;49.252;2023-05-27T03:54:38;19.23;;;6.80;;
69325;SDS011;56471;53.508;49.252;2023-05-27T03:57:04;18.50;;;6.53;;
69325;SDS011;56471;53.508;49.252;2023-05-27T03:59:30;18.23;;;6.32;;
69325;SDS011;56471;53.508;49.252;2023-05-27T04:01:56;19.02;;;6.47;;
69325;SDS011;56471;53.508;49.252;2023-05-27T04:04:21;15.80;;;6.20;;
69325;SDS011;56471;53.508;49.252;2023-05-27T04:06:47;14.48;;;6.55;;
69325;SDS011;56471;53.508;49.252;2023-05-27T04:09:13;23.75;;;6.40;;
69325;SDS011;56471;53.508;49.252;2023-05-27T04:11:38;16.63;;;6.40;;
69325;SDS011;56471;53.508;49.252;2023-05-27T04:14:04;18.85;;;6.25;;
69325;SDS011;56471;53.508;49.252;2023-05-27T04:16:31;18.40;;;6.35;;
69325;SDS011;56471;53.508;49.252;2023-05-27T04:18:59;16.33;;;5.93;;
69325;SDS011;56471;53.508;49.252;2023-05-27T04:21:27;14.48;;;6.13;;
69325;SDS011;56471;53.508;49.252;2023-05-27T04:23:53;22.13;;;6.57;;
69325;SDS011;56471;53.508;49.252;2023-05-27T04:26:18;17.63;;;6.07;;
69325;SDS011;56471;53.508;49.252;2023-05-27T04:28:45;24.75;;;6.07;;
69325;SDS011;56471;53.508;49.252;2023-05-27T04:31:11;17.42;;;6.07;;
69325;SDS011;56471;53.508;49.252;2023-05-27T04:33:44;17.10;;;6.15;;
69325;SDS011;56471;53.508;49.252;2023-05-27T04:36:10;17.38;;;6.15;;
69325;SDS011;56471;53.508;49.252;2023-05-27T04:38:36;17.95;;;6.80;;
69325;SDS011;56471;53.508;49.252;2023-05-27T04:41:02;16.85;;;5.85;;
69325;SDS011;56471;53.508;49.252;2023-05-27T04:43:29;20.23;;;6.22;;
69325;SDS011;56471;53.508;49.252;2023-05-27T04:45:55;15.18;;;6.05;;
69325;SDS011;56471;53.508;49.252;2023-05-27T04:48:24;13.93;;;6.00;;
69325;SDS011;56471;53.508;49.252;2023-05-27T04:50:51;18.23;;;6.10;;
69325;SDS011;56471;53.508;49.252;2023-05-27T04:53:19;17.10;;;6.10;;
69325;SDS011;56471;53.508;49.252;2023-05-27T04:55:46;20.90;;;5.57;;
69325;SDS011;56471;53.508;49.252;2023-05-27T04:58:12;20.30;;;6.35;;
69325;SDS011;56471;53.508;49.252;2023-05-27T05:00:38;15.00;;;5.65;;
69325;SDS011;56471;53.508;49.252;2023-05-27T05:03:14;18.10;;;5.60;;
69325;SDS011;56471;53.508;49.252;2023-05-27T05:05:47;17.60;;;6.27;;
69325;SDS011;56471;53.508;49.252;2023-05-27T05:08:19;20.88;;;6.07;;
69325;SDS011;56471;53.508;49.252;2023-05-27T05:10:46;15.40;;;6.32;;
69325;SDS011;56471;53.508;49.252;2023-05-27T05:13:13;14.43;;;6.40;;
69325;SDS011;56471;53.508;49.252;2023-05-27T05:15:39;14.68;;;6.13;;
69325;SDS011;56471;53.508;49.252;2023-05-27T05:18:05;19.55;;;6.20;;
69325;SDS011;56471;53.508;49.252;2023-05-27T05:20:31;17.48;;;5.90;;
69325;SDS011;56471;53.508;49.252;2023-05-27T05:22:57;22.40;;;6.70;;
69325;SDS011;56471;53.508;49.252;2023-05-27T05:25:23;20.38;;;6.38;;
69325;SDS011;56471;53.508;49.252;2023-05-27T05:27:50;14.38;;;5.78;;
69325;SDS011;56471;53.508;49.252;2023-05-27T05:30:17;19.83;;;6.20;;
69325;SDS011;56471;53.508;49.252;2023-05-27T05:32:42;12.30;;;5.78;;
69325;SDS011;56471;53.508;49.252;2023-05-27T05:35:08;17.73;;;5.78;;
69325;SDS011;56471;53.508;49.252;2023-05-27T05:37:34;15.93;;;5.78;;
69325;SDS011;56471;53.508;49.252;2023-05-27T05:40:00;16.33;;;6.15;;
69325;SDS011;56471;53.508;49.252;2023-05-27T05:42:25;19.42;;;6.25;;
69325;SDS011;56471;53.508;49.252;2023-05-27T05:44:52;17.13;;;5.95;;
69325;SDS011;56471;53.508;49.252;2023-05-27T05:47:18;16.33;;;5.75;;
69325;SDS011;56471;53.508;49.252;2023-05-27T05:49:43;19.40;;;6.15;;
69325;SDS011;56471;53.508;49.252;2023-05-27T05:52:09;19.35;;;5.90;;
69325;SDS011;56471;53.508;49.252;2023-05-27T05:54:35;14.63;;;6.00;;
69325;SDS011;56471;53.508;49.252;2023-05-27T05:57:01;19.65;;;5.75;;
69325;SDS011;56471;53.508;49.252;2023-05-27T05:59:30;16.23;;;5.85;;
69325;SDS011;56471;53.508;49.252;2023-05-27T06:01:56;16.23;;;5.68;;
69325;SDS011;56471;53.508;49.252;2023-05-27T06:04:22;19.40;;;5.93;;
69325;SDS011;56471;53.508;49.252;2023-05-27T06:06:48;15.75;;;5.68;;
69325;SDS011;56471;53.508;49.252;2023-05-27T06:09:14;13.43;;;5.93;;
69325;SDS011;56471;53.508;49.252;2023-05-27T06:11:39;16.73;;;5.80;;
69325;SDS011;56471;53.508;49.252;2023-05-27T06:14:05;20.73;;;6.22;;
69325;SDS011;56471;53.508;49.252;2023-05-27T06:16:32;20.40;;;5.70;;
69325;SDS011;56471;53.508;49.252;2023-05-27T06:19:00;15.75;;;6.38;;
69325;SDS011;56471;53.508;49.252;2023-05-27T06:21:26;15.77;;;6.22;;
69325;SDS011;56471;53.508;49.252;2023-05-27T06:23:51;18.02;;;6.18;;
69325;SDS011;56471;53.508;49.252;2023-05-27T06:26:17;15.65;;;5.72;;
69325;SDS011;56471;53.508;49.252;2023-05-27T06:28:43;15.65;;;5.75;;
69325;SDS011;56471;53.508;49.252;2023-05-27T06:31:08;14.35;;;5.90;;
69325;SDS011;56471;53.508;49.252;2023-05-27T06:33:34;17.27;;;6.38;;
69325;SDS011;56471;53.508;49.252;2023-05-27T06:36:00;16.42;;;6.28;;
69325;SDS011;56471;53.508;49.252;2023-05-27T06:38:25;16.80;;;5.95;;
69325;SDS011;56471;53.508;49.252;2023-05-27T06:40:51;15.93;;;6.38;;
69325;SDS011;56471;53.508;49.252;2023-05-27T06:43:17;19.25;;;6.18;;
69325;SDS011;56471;53.508;49.252;2023-05-27T06:45:42;20.15;;;5.93;;
69325;SDS011;56471;53.508;49.252;2023-05-27T06:48:08;14.07;;;6.10;;
69325;SDS011;56471;53.508;49.252;2023-05-27T06:50:34;12.00;;;5.88;;
69325;SDS011;56471;53.508;49.252;2023-05-27T06:52:59;15.25;;;6.32;;
69325;SDS011;56471;53.508;49.252;2023-05-27T06:55:25;16.30;;;6.35;;
69325;SDS011;56471;53.508;49.252;2023-05-27T06:57:51;15.02;;;5.95;;
69325;SDS011;56471;53.508;49.252;2023-05-27T07:00:16;20.38;;;5.90;;
69325;SDS011;56471;53.508;49.252;2023-05-27T07:02:42;19.38;;;6.22;;
69325;SDS011;56471;53.508;49.252;2023-05-27T07:05:08;14.55;;;6.65;;
69325;SDS011;56471;53.508;49.252;2023-05-27T07:07:34;20.33;;;5.97;;
69325;SDS011;56471;53.508;49.252;2023-05-27T07:09:59;17.52;;;6.65;;
69325;SDS011;56471;53.508;49.252;2023-05-27T07:12:25;13.65;;;6.50;;
69325;SDS011;56471;53.508;49.252;2023-05-27T07:14:51;15.25;;;6.03;;
69325;SDS011;56471;53.508;49.252;2023-05-27T07:17:16;17.05;;;5.78;;
69325;SDS011;56471;53.508;49.252;2023-05-27T07:19:42;17.23;;;5.90;;
69325;SDS011;56471;53.508;49.252;2023-05-27T07:22:08;20.42;;;5.97;;
69325;SDS011;56471;53.508;49.252;2023-05-27T07:24:33;16.35;;;5.63;;
69325;SDS011;56471;53.508;49.252;2023-05-27T07:26:59;17.38;;;6.18;;
69325;SDS011;56471;53.508;49.252;2023-05-27T07:29:25;17.38;;;5.85;;
69325;SDS011;56471;53.508;49.252;2023-05-27T07:31:50;21.30;;;5.53;;
69325;SDS011;56471;53.508;49.252;2023-05-27T07:34:16;16.55;;;5.68;;
69325;SDS011;56471;53.508;49.252;2023-05-27T07:36:42;21.83;;;5.20;;
69325;SDS011;56471;53.508;49.252;2023-05-27T07:39:07;16.75;;;5.18;;
69325;SDS011;56471;53.508;49.252;2023-05-27T07:41:33;17.55;;;5.25;;
69325;SDS011;56471;53.508;49.252;2023-05-27T07:43:59;18.17;;;6.65;;
69325;SDS011;56471;53.508;49.252;2023-05-27T07:46:24;22.85;;;6.50;;
69325;SDS011;56471;53.508;49.252;2023-05-27T07:48:50;22.48;;;6.20;;
69325;SDS011;56471;53.508;49.252;2023-05-27T07:51:16;23.02;;;6.03;;
69325;SDS011;56471;53.508;49.252;2023-05-27T07:53:42;19.35;;;5.82;;
69325;SDS011;56471;53.508;49.252;2023-05-27T07:56:07;17.23;;;5.68;;
69325;SDS011;56471;53.508;49.252;2023-05-27T07:58:33;20.48;;;5.57;;
69325;SDS011;56471;53.508;49.252;2023-05-27T08:00:58;18.25;;;5.88;;
69325;SDS011;56471;53.508;49.252;2023-05-27T08:03:24;16.02;;;5.40;;
69325;SDS011;56471;53.508;49.252;2023-05-27T08:05:50;19.17;;;6.43;;
69325;SDS011;56471;53.508;49.252;2023-05-27T08:08:16;20.70;;;5.45;;
69325;SDS011;56471;53.508;49.252;2023-05-27T08:10:41;26.98;;;5.50;;
69325;SDS011;56471;53.508;49.252;2023-05-27T08:13:09;19.08;;;5.32;;
69325;SDS011;56471;53.508;49.252;2023-05-27T08:15:35;23.67;;;5.38;;
69325;SDS011;56471;53.508;49.252;2023-05-27T08:18:00;19.23;;;5.30;;
69325;SDS011;56471;53.508;49.252;2023-05-27T08:20:27;16.63;;;5.18;;
69325;SDS011;56471;53.508;49.252;2023-05-27T08:22:52;19.40;;;5.70;;
69325;SDS011;56471;53.508;49.252;2023-05-27T08:25:18;20.02;;;5.15;;
69325;SDS011;56471;53.508;49.252;2023-05-27T08:27:45;24.38;;;5.20;;
69325;SDS011;56471;53.508;49.252;2023-05-27T08:30:18;21.20;;;5.97;;
69325;SDS011;56471;53.508;49.252;2023-05-27T08:32:44;16.70;;;5.40;;
69325;SDS011;56471;53.508;49.252;2023-05-27T08:35:10;17.10;;;5.38;;
69325;SDS011;56471;53.508;49.252;2023-05-27T08:37:37;22.50;;;5.63;;
69325;SDS011;56471;53.508;49.252;2023-05-27T08:40:03;14.65;;;4.82;;
69325;SDS011;56471;53.508;49.252;2023-05-27T08:42:33;19.27;;;5.40;;
69325;SDS011;56471;53.508;49.252;2023-05-27T08:44:59;23.23;;;5.35;;
69325;SDS011;56471;53.508;49.252;2023-05-27T08:47:28;19.77;;;4.80;;
69325;SDS011;56471;53.508;49.252;2023-05-27T08:49:56;20.88;;;5.72;;
69325;SDS011;56471;53.508;49.252;2023-05-27T08:52:23;21.05;;;5.68;;
69325;SDS011;56471;53.508;49.252;2023-05-27T08:54:52;18.33;;;5.00;;
69325;SDS011;56471;53.508;49.252;2023-05-27T08:57:20;14.93;;;5.10;;
69325;SDS011;56471;53.508;49.252;2023-05-27T08:59:49;21.33;;;5.32;;
69325;SDS011;56471;53.508;49.252;2023-05-27T09:02:15;21.25;;;5.30;;
69325;SDS011;56471;53.508;49.252;2023-05-27T09:04:45;14.88;;;5.47;;
69325;SDS011;56471;53.508;49.252;2023-05-27T09:07:11;17.17;;;5.15;;
69325;SDS011;56471;53.508;49.252;2023-05-27T09:09:38;16.92;;;5.30;;
69325;SDS011;56471;53.508;49.252;2023-05-27T09:12:04;10.90;;;5.00;;
69325;SDS011;56471;53.508;49.252;2023-05-27T09:14:34;22.33;;;5.07;;
69325;SDS011;56471;53.508;49.252;2023-05-27T09:17:06;19.95;;;5.40;;
69325;SDS011;56471;53.508;49.252;2023-05-27T09:19:33;15.00;;;4.45;;
69325;SDS011;56471;53.508;49.252;2023-05-27T09:21:59;21.67;;;5.22;;
69325;SDS011;56471;53.508;49.252;2023-05-27T09:24:26;21.48;;;5.70;;
69325;SDS011;56471;53.508;49.252;2023-05-27T09:26:52;23.83;;;5.50;;
69325;SDS011;56471;53.508;49.252;2023-05-27T09:29:19;17.33;;;5.22;;
69325;SDS011;56471;53.508;49.252;2023-05-27T09:31:48;18.80;;;4.93;;
69325;SDS011;56471;53.508;49.252;2023-05-27T09:34:14;19.15;;;5.43;;
69325;SDS011;56471;53.508;49.252;2023-05-27T09:36:47;21.58;;;5.30;;
69325;SDS011;56471;53.508;49.252;2023-05-27T09:39:14;18.15;;;4.63;;
69325;SDS011;56471;53.508;49.252;2023-05-27T09:41:42;18.83;;;5.32;;
69325;SDS011;56471;53.508;49.252;2023-05-27T09:44:08;19.30;;;4.93;;
69325;SDS011;56471;53.508;49.252;2023-05-27T09:46:35;17.05;;;4.75;;
69325;SDS011;56471;53.508;49.252;2023-05-27T09:49:01;14.45;;;5.22;;
69325;SDS011;56471;53.508;49.252;2023-05-27T09:51:29;15.48;;;5.20;;
69325;SDS011;56471;53.508;49.252;2023-05-27T09:53:57;14.98;;;4.82;;
69325;SDS011;56471;53.508;49.252;2023-05-27T09:56:24;19.50;;;5.10;;
69325;SDS011;56471;53.508;49.252;2023-05-27T09:58:52;15.52;;;4.78;;
69325;SDS011;56471;53.508;49.252;2023-05-27T10:01:24;18.02;;;4.43;;
69325;SDS011;56471;53.508;49.252;2023-05-27T10:03:53;19.67;;;5.30;;
69325;SDS011;56471;53.508;49.252;2023-05-27T10:06:19;15.77;;;4.72;;
69325;SDS011;56471;53.508;49.252;2023-05-27T10:08:46;14.90;;;5.10;;
69325;SDS011;56471;53.508;49.252;2023-05-27T10:11:12;16.10;;;5.20;;
69325;SDS011;56471;53.508;49.252;2023-05-27T10:13:38;16.92;;;4.95;;
69325;SDS011;56471;53.508;49.252;2023-05-27T10:16:04;21.02;;;5.13;;
69325;SDS011;56471;53.508;49.252;2023-05-27T10:18:31;19.10;;;5.22;;
69325;SDS011;56471;53.508;49.252;2023-05-27T10:20:59;17.52;;;5.10;;
69325;SDS011;56471;53.508;49.252;2023-05-27T10:23:29;17.83;;;5.47;;
69325;SDS011;56471;53.508;49.252;2023-05-27T10:26:05;18.45;;;5.13;;
69325;SDS011;56471;53.508;49.252;2023-05-27T10:28:33;14.13;;;5.00;;
69325;SDS011;56471;53.508;49.252;2023-05-27T10:31:05;17.60;;;5.45;;
69325;SDS011;56471;53.508;49.252;2023-05-27T10:33:41;17.05;;;5.30;;
69325;SDS011;56471;53.508;49.252;2023-05-27T10:36:09;10.98;;;5.30;;
69325;SDS011;56471;53.508;49.252;2023-05-27T10:38:38;23.02;;;5.75;;
69325;SDS011;56471;53.508;49.252;2023-05-27T10:41:06;18.42;;;6.13;;
69325;SDS011;56471;53.508;49.252;2023-05-27T10:43:32;18.83;;;5.20;;
69325;SDS011;56471;53.508;49.252;2023-05-27T10:46:02;18.20;;;6.13;;
69325;SDS011;56471;53.508;49.252;2023-05-27T10:48:35;13.75;;;5.63;;
69325;SDS011;56471;53.508;49.252;2023-05-27T10:51:02;15.95;;;5.70;;
69325;SDS011;56471;53.508;49.252;2023-05-27T10:53:28;15.25;;;5.30;;
69325;SDS011;56471;53.508;49.252;2023-05-27T10:55:57;18.02;;;5.45;;
69325;SDS011;56471;53.508;49.252;2023-05-27T10:58:23;14.73;;;5.38;;
69325;SDS011;56471;53.508;49.252;2023-05-27T11:00:50;13.55;;;4.85;;
69325;SDS011;56471;53.508;49.252;2023-05-27T11:03:18;16.17;;;5.30;;
69325;SDS011;56471;53.508;49.252;2023-05-27T11:08:24;16.85;;;5.45;;
69325;SDS011;56471;53.508;49.252;2023-05-27T11:10:50;14.52;;;5.85;;
69325;SDS011;56471;53.508;49.252;2023-05-27T11:13:15;15.93;;;5.45;;
69325;SDS011;56471;53.508;49.252;2023-05-27T11:15:41;16.33;;;5.53;;
69325;SDS011;56471;53.508;49.252;2023-05-27T11:18:07;16.58;;;5.80;;
69325;SDS011;56471;53.508;49.252;2023-05-27T11:20:34;18.65;;;6.00;;
69325;SDS011;56471;53.508;49.252;2023-05-27T11:23:01;15.65;;;5.80;;
69325;SDS011;56471;53.508;49.252;2023-05-27T11:25:26;14.25;;;5.50;;
69325;SDS011;56471;53.508;49.252;2023-05-27T11:27:52;20.73;;;6.05;;
69325;SDS011;56471;53.508;49.252;2023-05-27T11:30:18;15.52;;;5.75;;
69325;SDS011;56471;53.508;49.252;2023-05-27T11:32:49;15.68;;;5.40;;
69325;SDS011;56471;53.508;49.252;2023-05-27T11:35:17;16.38;;;5.45;;
69325;SDS011;56471;53.508;49.252;2023-05-27T11:37:49;16.75;;;5.65;;
69325;SDS011;56471;53.508;49.252;2023-05-27T11:40:19;14.45;;;5.53;;
69325;SDS011;56471;53.508;49.252;2023-05-27T11:42:45;18.50;;;5.63;;
69325;SDS011;56471;53.508;49.252;2023-05-27T11:45:15;13.40;;;5.50;;
69325;SDS011;56471;53.508;49.252;2023-05-27T11:47:42;15.50;;;5.65;;
69325;SDS011;56471;53.508;49.252;2023-05-27T11:50:08;13.50;;;5.50;;
69325;SDS011;56471;53.508;49.252;2023-05-27T11:52:34;13.65;;;5.82;;
69325;SDS011;56471;53.508;49.252;2023-05-27T11:55:00;11.65;;;4.97;;
69325;SDS011;56471;53.508;49.252;2023-05-27T11:57:26;16.38;;;5.80;;
69325;SDS011;56471;53.508;49.252;2023-05-27T11:59:52;18.98;;;6.25;;
69325;SDS011;56471;53.508;49.252;2023-05-27T12:02:18;13.50;;;5.30;;
69325;SDS011;56471;53.508;49.252;2023-05-27T12:04:46;16.55;;;5.88;;
69325;SDS011;56471;53.508;49.252;2023-05-27T12:07:11;16.70;;;5.90;;
69325;SDS011;56471;53.508;49.252;2023-05-27T12:09:39;15.98;;;5.75;;
69325;SDS011;56471;53.508;49.252;2023-05-27T12:12:04;15.75;;;5.63;;
69325;SDS011;56471;53.508;49.252;2023-05-27T12:14:31;15.88;;;5.43;;
69325;SDS011;56471;53.508;49.252;2023-05-27T12:16:57;21.88;;;6.45;;
69325;SDS011;56471;53.508;49.252;2023-05-27T12:19:22;19.20;;;6.28;;
69325;SDS011;56471;53.508;49.252;2023-05-27T12:21:48;21.10;;;6.28;;
69325;SDS011;56471;53.508;49.252;2023-05-27T12:24:14;15.85;;;6.15;;
69325;SDS011;56471;53.508;49.252;2023-05-27T12:26:39;16.98;;;6.15;;
69325;SDS011;56471;53.508;49.252;2023-05-27T12:29:05;19.77;;;6.53;;
69325;SDS011;56471;53.508;49.252;2023-05-27T12:31:31;16.88;;;5.50;;
69325;SDS011;56471;53.508;49.252;2023-05-27T12:33:57;18.55;;;5.78;;
69325;SDS011;56471;53.508;49.252;2023-05-27T12:36:22;14.40;;;5.72;;
69325;SDS011;56471;53.508;49.252;2023-05-27T12:38:48;15.00;;;5.68;;
69325;SDS011;56471;53.508;49.252;2023-05-27T12:41:14;19.23;;;5.75;;
69325;SDS011;56471;53.508;49.252;2023-05-27T12:43:40;21.42;;;5.63;;
69325;SDS011;56471;53.508;49.252;2023-05-27T12:46:06;15.70;;;5.70;;
69325;SDS011;56471;53.508;49.252;2023-05-27T12:48:32;15.82;;;6.07;;
69325;SDS011;56471;53.508;49.252;2023-05-27T12:50:58;13.73;;;5.82;;
69325;SDS011;56471;53.508;49.252;2023-05-27T12:53:23;29.83;;;6.40;;
69325;SDS011;56471;53.508;49.252;2023-05-27T12:55:49;17.40;;;5.80;;
69325;SDS011;56471;53.508;49.252;2023-05-27T12:58:15;17.77;;;6.15;;
69325;SDS011;56471;53.508;49.252;2023-05-27T13:00:41;21.25;;;6.30;;
69325;SDS011;56471;53.508;49.252;2023-05-27T13:03:06;18.80;;;6.10;;
69325;SDS011;56471;53.508;49.252;2023-05-27T13:05:32;16.95;;;6.57;;
69325;SDS011;56471;53.508;49.252;2023-05-27T13:07:58;17.17;;;6.13;;
69325;SDS011;56471;53.508;49.252;2023-05-27T13:10:29;22.77;;;6.90;;
69325;SDS011;56471;53.508;49.252;2023-05-27T13:12:56;19.70;;;5.93;;
69325;SDS011;56471;53.508;49.252;2023-05-27T13:15:24;15.18;;;5.70;;
69325;SDS011;56471;53.508;49.252;2023-05-27T13:17:50;17.58;;;5.93;;
69325;SDS011;56471;53.508;49.252;2023-05-27T13:20:17;17.10;;;5.63;;
69325;SDS011;56471;53.508;49.252;2023-05-27T13:22:44;14.40;;;5.80;;
69325;SDS011;56471;53.508;49.252;2023-05-27T13:25:11;20.77;;;6.00;;
69325;SDS011;56471;53.508;49.252;2023-05-27T13:27:37;18.58;;;6.03;;
69325;SDS011;56471;53.508;49.252;2023-05-27T13:30:07;16.13;;;5.85;;
69325;SDS011;56471;53.508;49.252;2023-05-27T13:32:34;19.17;;;6.03;;
69325;SDS011;56471;53.508;49.252;2023-05-27T13:35:00;18.63;;;5.68;;
69325;SDS011;56471;53.508;49.252;2023-05-27T13:37:27;20.65;;;5.80;;
69325;SDS011;56471;53.508;49.252;2023-05-27T13:39:53;16.77;;;6.28;;
69325;SDS011;56471;53.508;49.252;2023-05-27T13:42:18;19.58;;;5.85;;
69325;SDS011;56471;53.508;49.252;2023-05-27T13:44:44;17.65;;;6.03;;
69325;SDS011;56471;53.508;49.252;2023-05-27T13:47:10;23.45;;;6.18;;
69325;SDS011;56471;53.508;49.252;2023-05-27T13:49:35;12.20;;;5.88;;
69325;SDS011;56471;53.508;49.252;2023-05-27T13:52:01;20.55;;;5.80;;
69325;SDS011;56471;53.508;49.252;2023-05-27T13:54:27;19.63;;;6.25;;
69325;SDS011;56471;53.508;49.252;2023-05-27T13:56:53;19.10;;;6.60;;
69325;SDS011;56471;53.508;49.252;2023-05-27T13:59:19;19.35;;;6.93;;
69325;SDS011;56471;53.508;49.252;2023-05-27T14:01:45;17.10;;;6.13;;
69325;SDS011;56471;53.508;49.252;2023-05-27T14:04:11;19.00;;;6.57;;
69325;SDS011;56471;53.508;49.252;2023-05-27T14:06:36;16.83;;;6.47;;
69325;SDS011;56471;53.508;49.252;2023-05-27T14:09:02;16.63;;;6.50;;
69325;SDS011;56471;53.508;49.252;2023-05-27T14:11:28;16.17;;;6.63;;
69325;SDS011;56471;53.508;49.252;2023-05-27T14:13:54;17.42;;;6.43;;
69325;SDS011;56471;53.508;49.252;2023-05-27T14:16:20;15.98;;;6.13;;
69325;SDS011;56471;53.508;49.252;2023-05-27T14:18:47;15.73;;;6.97;;
69325;SDS011;56471;53.508;49.252;2023-05-27T14:21:14;18.27;;;6.40;;
69325;SDS011;56471;53.508;49.252;2023-05-27T14:23:40;16.73;;;6.80;;
69325;SDS011;56471;53.508;49.252;2023-05-27T14:26:06;15.05;;;6.80;;